sensor_id;sensor_type;location;lat;lon;timestamp;temperature;humidity
27226;DHT22;14732;51.074;3.788;2024-01-30T00:01:22;11.90;99.90
27226;DHT22;14732;51.074;3.788;2024-01-30T00:03:48;11.80;99.90
27226;DHT22;14732;51.074;3.788;2024-01-30T00:06:13;11.90;99.90
27226;DHT22;14732;51.074;3.788;2024-01-30T00:08:39;11.90;99.90
27226;DHT22;14732;51.074;3.788;2024-01-30T00:11:05;11.90;99.90
27226;DHT22;14732;51.074;3.788;2024-01-30T00:13:30;11.90;99.90
27226;DHT22;14732;51.074;3.788;2024-01-30T00:15:56;12.00;99.90
27226;DHT22;14732;51.074;3.788;2024-01-30T00:18:22;11.90;99.90
27226;DHT22;14732;51.074;3.788;2024-01-30T00:20:47;11.80;99.90
27226;DHT22;14732;51.074;3.788;2024-01-30T00:23:13;11.80;99.90
27226;DHT22;14732;51.074;3.788;2024-01-30T00:25:39;11.70;99.90
27226;DHT22;14732;51.074;3.788;2024-01-30T00:28:05;11.70;99.90
27226;DHT22;14732;51.074;3.788;2024-01-30T00:30:30;11.70;99.90
27226;DHT22;14732;51.074;3.788;2024-01-30T00:32:56;11.60;99.90
27226;DHT22;14732;51.074;3.788;2024-01-30T00:35:22;11.70;99.90
27226;DHT22;14732;51.074;3.788;2024-01-30T00:37:48;11.70;99.90
27226;DHT22;14732;51.074;3.788;2024-01-30T00:40:14;11.70;99.90
27226;DHT22;14732;51.074;3.788;2024-01-30T00:42:44;11.70;99.90
27226;DHT22;14732;51.074;3.788;2024-01-30T00:45:16;11.70;99.90
27226;DHT22;14732;51.074;3.788;2024-01-30T00:47:43;11.60;99.90
27226;DHT22;14732;51.074;3.788;2024-01-30T00:50:09;11.60;99.90
27226;DHT22;14732;51.074;3.788;2024-01-30T00:52:35;11.50;99.90
27226;DHT22;14732;51.074;3.788;2024-01-30T00:55:01;11.50;99.90
27226;DHT22;14732;51.074;3.788;2024-01-30T00:57:26;11.50;99.90
27226;DHT22;14732;51.074;3.788;2024-01-30T00:59:52;11.60;99.90
27226;DHT22;14732;51.074;3.788;2024-01-30T01:02:18;11.70;99.90
27226;DHT22;14732;51.074;3.788;2024-01-30T01:04:44;11.60;99.90
27226;DHT22;14732;51.074;3.788;2024-01-30T01:07:11;11.60;99.90
27226;DHT22;14732;51.074;3.788;2024-01-30T01:09:36;11.60;99.90
27226;DHT22;14732;51.074;3.788;2024-01-30T01:12:03;11.60;99.90
27226;DHT22;14732;51.074;3.788;2024-01-30T01:14:29;11.50;99.90
27226;DHT22;14732;51.074;3.788;2024-01-30T01:16:55;11.50;99.90
27226;DHT22;14732;51.074;3.788;2024-01-30T01:19:21;11.50;99.90
27226;DHT22;14732;51.074;3.788;2024-01-30T01:21:47;11.60;99.90
27226;DHT22;14732;51.074;3.788;2024-01-30T01:24:12;11.60;99.90
27226;DHT22;14732;51.074;3.788;2024-01-30T01:26:38;11.60;99.90
27226;DHT22;14732;51.074;3.788;2024-01-30T01:29:04;11.50;99.90
27226;DHT22;14732;51.074;3.788;2024-01-30T01:31:36;11.50;99.90
27226;DHT22;14732;51.074;3.788;2024-01-30T01:34:05;11.50;99.90
27226;DHT22;14732;51.074;3.788;2024-01-30T01:36:31;11.50;99.90
27226;DHT22;14732;51.074;3.788;2024-01-30T01:38:57;11.60;99.90
27226;DHT22;14732;51.074;3.788;2024-01-30T01:41:22;11.60;99.90
27226;DHT22;14732;51.074;3.788;2024-01-30T01:43:48;11.60;99.90
27226;DHT22;14732;51.074;3.788;2024-01-30T01:46:14;11.50;99.90
27226;DHT22;14732;51.074;3.788;2024-01-30T01:48:41;11.50;99.90
27226;DHT22;14732;51.074;3.788;2024-01-30T01:51:08;11.60;99.90
27226;DHT22;14732;51.074;3.788;2024-01-30T01:53:35;11.60;99.90
27226;DHT22;14732;51.074;3.788;2024-01-30T01:56:00;11.50;99.90
27226;DHT22;14732;51.074;3.788;2024-01-30T01:58:27;11.60;99.90
27226;DHT22;14732;51.074;3.788;2024-01-30T02:00:55;11.60;99.90
27226;DHT22;14732;51.074;3.788;2024-01-30T02:03:21;11.50;99.90
27226;DHT22;14732;51.074;3.788;2024-01-30T02:05:47;11.50;99.90
27226;DHT22;14732;51.074;3.788;2024-01-30T02:08:13;11.60;99.90
27226;DHT22;14732;51.074;3.788;2024-01-30T02:10:39;11.50;99.90
27226;DHT22;14732;51.074;3.788;2024-01-30T02:13:04;11.50;99.90
27226;DHT22;14732;51.074;3.788;2024-01-30T02:15:30;11.50;99.90
27226;DHT22;14732;51.074;3.788;2024-01-30T02:17:56;11.70;99.90
27226;DHT22;14732;51.074;3.788;2024-01-30T02:20:23;11.80;99.90
27226;DHT22;14732;51.074;3.788;2024-01-30T02:22:52;11.80;99.90
27226;DHT22;14732;51.074;3.788;2024-01-30T02:25:18;11.80;99.90
27226;DHT22;14732;51.074;3.788;2024-01-30T02:27:43;11.70;99.90
27226;DHT22;14732;51.074;3.788;2024-01-30T02:30:09;11.80;99.90
27226;DHT22;14732;51.074;3.788;2024-01-30T02:32:35;11.80;99.90
27226;DHT22;14732;51.074;3.788;2024-01-30T02:35:01;11.80;99.90
27226;DHT22;14732;51.074;3.788;2024-01-30T02:37:26;11.70;99.90
27226;DHT22;14732;51.074;3.788;2024-01-30T02:39:52;11.70;99.90
27226;DHT22;14732;51.074;3.788;2024-01-30T02:42:18;11.80;99.90
27226;DHT22;14732;51.074;3.788;2024-01-30T02:44:43;11.80;99.90
27226;DHT22;14732;51.074;3.788;2024-01-30T02:47:09;11.90;99.90
27226;DHT22;14732;51.074;3.788;2024-01-30T02:49:35;11.90;99.90
27226;DHT22;14732;51.074;3.788;2024-01-30T02:52:00;11.80;99.90
27226;DHT22;14732;51.074;3.788;2024-01-30T02:54:26;11.80;99.90
27226;DHT22;14732;51.074;3.788;2024-01-30T02:56:51;11.80;99.90
27226;DHT22;14732;51.074;3.788;2024-01-30T02:59:17;11.70;99.90
27226;DHT22;14732;51.074;3.788;2024-01-30T03:01:45;11.70;99.90
27226;DHT22;14732;51.074;3.788;2024-01-30T03:04:11;11.70;99.90
27226;DHT22;14732;51.074;3.788;2024-01-30T03:06:37;11.90;99.90
27226;DHT22;14732;51.074;3.788;2024-01-30T03:09:03;12.10;99.90
27226;DHT22;14732;51.074;3.788;2024-01-30T03:11:30;12.10;99.90
27226;DHT22;14732;51.074;3.788;2024-01-30T03:13:56;12.10;99.90
27226;DHT22;14732;51.074;3.788;2024-01-30T03:16:21;12.20;99.90
27226;DHT22;14732;51.074;3.788;2024-01-30T03:18:47;12.20;99.90
27226;DHT22;14732;51.074;3.788;2024-01-30T03:21:13;12.20;99.90
27226;DHT22;14732;51.074;3.788;2024-01-30T03:23:39;12.20;99.90
27226;DHT22;14732;51.074;3.788;2024-01-30T03:26:05;12.10;99.90
27226;DHT22;14732;51.074;3.788;2024-01-30T03:28:32;12.00;99.90
27226;DHT22;14732;51.074;3.788;2024-01-30T03:30:57;12.10;99.90
27226;DHT22;14732;51.074;3.788;2024-01-30T03:33:23;12.20;99.90
27226;DHT22;14732;51.074;3.788;2024-01-30T03:35:48;12.20;99.90
27226;DHT22;14732;51.074;3.788;2024-01-30T03:38:14;12.30;99.90
27226;DHT22;14732;51.074;3.788;2024-01-30T03:40:40;12.20;99.90
27226;DHT22;14732;51.074;3.788;2024-01-30T03:43:05;12.10;99.90
27226;DHT22;14732;51.074;3.788;2024-01-30T03:45:31;12.00;99.90
27226;DHT22;14732;51.074;3.788;2024-01-30T03:47:57;12.00;99.90
27226;DHT22;14732;51.074;3.788;2024-01-30T03:50:22;12.00;99.90
27226;DHT22;14732;51.074;3.788;2024-01-30T03:52:48;11.90;99.90
27226;DHT22;14732;51.074;3.788;2024-01-30T03:55:14;11.80;99.90
27226;DHT22;14732;51.074;3.788;2024-01-30T03:57:39;11.80;99.90
27226;DHT22;14732;51.074;3.788;2024-01-30T04:00:05;11.70;99.90
27226;DHT22;14732;51.074;3.788;2024-01-30T04:02:31;11.70;99.90
27226;DHT22;14732;51.074;3.788;2024-01-30T04:04:57;11.80;99.90
27226;DHT22;14732;51.074;3.788;2024-01-30T04:07:22;11.70;99.90
27226;DHT22;14732;51.074;3.788;2024-01-30T04:09:48;11.80;99.90
27226;DHT22;14732;51.074;3.788;2024-01-30T04:12:13;11.80;99.90
27226;DHT22;14732;51.074;3.788;2024-01-30T04:14:39;11.70;99.90
27226;DHT22;14732;51.074;3.788;2024-01-30T04:17:05;11.50;99.90
27226;DHT22;14732;51.074;3.788;2024-01-30T04:19:30;11.50;99.90
27226;DHT22;14732;51.074;3.788;2024-01-30T04:21:56;11.40;99.90
27226;DHT22;14732;51.074;3.788;2024-01-30T04:24:21;11.50;99.90
27226;DHT22;14732;51.074;3.788;2024-01-30T04:26:47;11.40;99.90
27226;DHT22;14732;51.074;3.788;2024-01-30T04:29:13;11.40;99.90
27226;DHT22;14732;51.074;3.788;2024-01-30T04:31:38;11.50;99.90
27226;DHT22;14732;51.074;3.788;2024-01-30T04:34:04;11.60;99.90
27226;DHT22;14732;51.074;3.788;2024-01-30T04:36:29;11.70;99.90
27226;DHT22;14732;51.074;3.788;2024-01-30T04:38:55;11.60;99.90
27226;DHT22;14732;51.074;3.788;2024-01-30T04:41:21;11.60;99.90
27226;DHT22;14732;51.074;3.788;2024-01-30T04:43:46;11.60;99.90
27226;DHT22;14732;51.074;3.788;2024-01-30T04:46:12;11.60;99.90
27226;DHT22;14732;51.074;3.788;2024-01-30T04:48:37;11.50;99.90
27226;DHT22;14732;51.074;3.788;2024-01-30T04:51:03;11.50;99.90
27226;DHT22;14732;51.074;3.788;2024-01-30T04:53:30;11.60;99.90
27226;DHT22;14732;51.074;3.788;2024-01-30T04:55:56;11.70;99.90
27226;DHT22;14732;51.074;3.788;2024-01-30T04:58:22;11.60;99.90
27226;DHT22;14732;51.074;3.788;2024-01-30T05:00:47;11.50;99.90
27226;DHT22;14732;51.074;3.788;2024-01-30T05:03:18;11.40;99.90
27226;DHT22;14732;51.074;3.788;2024-01-30T05:05:44;11.20;99.90
27226;DHT22;14732;51.074;3.788;2024-01-30T05:08:10;11.30;99.90
27226;DHT22;14732;51.074;3.788;2024-01-30T05:10:35;11.30;99.90
27226;DHT22;14732;51.074;3.788;2024-01-30T05:13:01;11.40;99.90
27226;DHT22;14732;51.074;3.788;2024-01-30T05:15:27;11.40;99.90
27226;DHT22;14732;51.074;3.788;2024-01-30T05:17:52;11.40;99.90
27226;DHT22;14732;51.074;3.788;2024-01-30T05:20:19;11.50;99.90
27226;DHT22;14732;51.074;3.788;2024-01-30T05:22:45;11.60;99.90
27226;DHT22;14732;51.074;3.788;2024-01-30T05:25:15;11.60;99.90
27226;DHT22;14732;51.074;3.788;2024-01-30T05:27:40;11.60;99.90
27226;DHT22;14732;51.074;3.788;2024-01-30T05:30:06;11.60;99.90
27226;DHT22;14732;51.074;3.788;2024-01-30T05:32:32;11.50;99.90
27226;DHT22;14732;51.074;3.788;2024-01-30T05:34:58;11.50;99.90
27226;DHT22;14732;51.074;3.788;2024-01-30T05:37:24;11.50;99.90
27226;DHT22;14732;51.074;3.788;2024-01-30T05:39:49;11.50;99.90
27226;DHT22;14732;51.074;3.788;2024-01-30T05:42:15;11.50;99.90
27226;DHT22;14732;51.074;3.788;2024-01-30T05:44:42;11.40;99.90
27226;DHT22;14732;51.074;3.788;2024-01-30T05:47:08;11.60;99.90
27226;DHT22;14732;51.074;3.788;2024-01-30T05:49:33;11.70;99.90
27226;DHT22;14732;51.074;3.788;2024-01-30T05:52:02;11.60;99.90
27226;DHT22;14732;51.074;3.788;2024-01-30T05:54:27;11.60;99.90
27226;DHT22;14732;51.074;3.788;2024-01-30T05:56:53;11.60;99.90
27226;DHT22;14732;51.074;3.788;2024-01-30T05:59:18;11.60;99.90
27226;DHT22;14732;51.074;3.788;2024-01-30T06:01:48;11.60;99.90
27226;DHT22;14732;51.074;3.788;2024-01-30T06:04:14;11.50;99.90
27226;DHT22;14732;51.074;3.788;2024-01-30T06:06:40;11.50;99.90
27226;DHT22;14732;51.074;3.788;2024-01-30T06:09:05;11.40;99.90
27226;DHT22;14732;51.074;3.788;2024-01-30T06:11:32;11.50;99.90
27226;DHT22;14732;51.074;3.788;2024-01-30T06:13:57;11.50;99.90
27226;DHT22;14732;51.074;3.788;2024-01-30T06:16:23;11.50;99.90
27226;DHT22;14732;51.074;3.788;2024-01-30T06:18:48;11.60;99.90
27226;DHT22;14732;51.074;3.788;2024-01-30T06:21:14;11.60;99.90
27226;DHT22;14732;51.074;3.788;2024-01-30T06:23:40;11.60;99.90
27226;DHT22;14732;51.074;3.788;2024-01-30T06:26:07;11.60;99.90
27226;DHT22;14732;51.074;3.788;2024-01-30T06:28:32;11.80;99.90
27226;DHT22;14732;51.074;3.788;2024-01-30T06:30:58;11.90;99.90
27226;DHT22;14732;51.074;3.788;2024-01-30T06:33:23;11.90;99.90
27226;DHT22;14732;51.074;3.788;2024-01-30T06:35:49;11.80;99.90
27226;DHT22;14732;51.074;3.788;2024-01-30T06:38:14;11.70;99.90
27226;DHT22;14732;51.074;3.788;2024-01-30T06:40:41;11.70;99.90
27226;DHT22;14732;51.074;3.788;2024-01-30T06:43:07;11.70;99.90
27226;DHT22;14732;51.074;3.788;2024-01-30T06:45:33;11.80;99.90
27226;DHT22;14732;51.074;3.788;2024-01-30T06:48:00;11.90;99.90
27226;DHT22;14732;51.074;3.788;2024-01-30T06:50:26;11.80;99.90
27226;DHT22;14732;51.074;3.788;2024-01-30T06:52:51;11.80;99.90
27226;DHT22;14732;51.074;3.788;2024-01-30T06:55:18;11.70;99.90
27226;DHT22;14732;51.074;3.788;2024-01-30T06:57:44;11.70;99.90
27226;DHT22;14732;51.074;3.788;2024-01-30T07:00:10;11.70;99.90
27226;DHT22;14732;51.074;3.788;2024-01-30T07:02:35;11.70;99.90
27226;DHT22;14732;51.074;3.788;2024-01-30T07:05:02;11.60;99.90
27226;DHT22;14732;51.074;3.788;2024-01-30T07:07:28;11.70;99.90
27226;DHT22;14732;51.074;3.788;2024-01-30T07:09:54;11.90;99.90
27226;DHT22;14732;51.074;3.788;2024-01-30T07:12:22;11.90;99.90
27226;DHT22;14732;51.074;3.788;2024-01-30T07:14:50;11.90;99.90
27226;DHT22;14732;51.074;3.788;2024-01-30T07:17:15;11.90;99.90
27226;DHT22;14732;51.074;3.788;2024-01-30T07:19:41;12.00;99.90
27226;DHT22;14732;51.074;3.788;2024-01-30T07:22:08;12.00;99.90
27226;DHT22;14732;51.074;3.788;2024-01-30T07:24:33;12.00;99.90
27226;DHT22;14732;51.074;3.788;2024-01-30T07:26:59;12.00;99.90
27226;DHT22;14732;51.074;3.788;2024-01-30T07:29:25;11.90;99.90
27226;DHT22;14732;51.074;3.788;2024-01-30T07:31:50;12.00;99.90
27226;DHT22;14732;51.074;3.788;2024-01-30T07:34:16;12.10;99.90
27226;DHT22;14732;51.074;3.788;2024-01-30T07:36:42;12.00;99.90
27226;DHT22;14732;51.074;3.788;2024-01-30T07:39:07;12.10;99.90
27226;DHT22;14732;51.074;3.788;2024-01-30T07:41:33;12.20;99.90
27226;DHT22;14732;51.074;3.788;2024-01-30T07:43:59;12.20;99.90
27226;DHT22;14732;51.074;3.788;2024-01-30T07:46:24;12.10;99.90
27226;DHT22;14732;51.074;3.788;2024-01-30T07:48:53;12.00;99.90
27226;DHT22;14732;51.074;3.788;2024-01-30T07:51:19;12.00;99.90
27226;DHT22;14732;51.074;3.788;2024-01-30T07:53:51;11.90;99.90
27226;DHT22;14732;51.074;3.788;2024-01-30T07:56:17;11.90;99.90
27226;DHT22;14732;51.074;3.788;2024-01-30T07:58:42;11.90;99.90
27226;DHT22;14732;51.074;3.788;2024-01-30T08:01:08;11.90;99.90
27226;DHT22;14732;51.074;3.788;2024-01-30T08:03:34;12.00;99.90
27226;DHT22;14732;51.074;3.788;2024-01-30T08:05:59;12.10;99.90
27226;DHT22;14732;51.074;3.788;2024-01-30T08:08:25;12.00;99.90
27226;DHT22;14732;51.074;3.788;2024-01-30T08:10:52;12.10;99.90
27226;DHT22;14732;51.074;3.788;2024-01-30T08:13:18;12.20;99.90
27226;DHT22;14732;51.074;3.788;2024-01-30T08:15:43;12.20;99.90
27226;DHT22;14732;51.074;3.788;2024-01-30T08:18:09;12.20;99.90
27226;DHT22;14732;51.074;3.788;2024-01-30T08:20:34;12.20;99.90
27226;DHT22;14732;51.074;3.788;2024-01-30T08:23:00;12.20;99.90
27226;DHT22;14732;51.074;3.788;2024-01-30T08:25:26;12.20;99.90
27226;DHT22;14732;51.074;3.788;2024-01-30T08:27:52;12.30;99.90
27226;DHT22;14732;51.074;3.788;2024-01-30T08:30:17;12.30;99.90
27226;DHT22;14732;51.074;3.788;2024-01-30T08:32:43;12.20;99.90
27226;DHT22;14732;51.074;3.788;2024-01-30T08:35:08;12.10;99.90
27226;DHT22;14732;51.074;3.788;2024-01-30T08:37:34;12.10;99.90
27226;DHT22;14732;51.074;3.788;2024-01-30T08:40:00;12.20;99.90
27226;DHT22;14732;51.074;3.788;2024-01-30T08:42:27;12.10;99.90
27226;DHT22;14732;51.074;3.788;2024-01-30T08:44:53;12.10;99.90
27226;DHT22;14732;51.074;3.788;2024-01-30T08:47:19;12.00;99.90
27226;DHT22;14732;51.074;3.788;2024-01-30T08:49:45;11.90;99.90
27226;DHT22;14732;51.074;3.788;2024-01-30T08:52:11;11.90;99.90
27226;DHT22;14732;51.074;3.788;2024-01-30T08:54:36;12.00;99.90
27226;DHT22;14732;51.074;3.788;2024-01-30T08:57:02;12.20;99.90
27226;DHT22;14732;51.074;3.788;2024-01-30T08:59:29;12.10;99.90
27226;DHT22;14732;51.074;3.788;2024-01-30T09:01:55;12.10;99.90
27226;DHT22;14732;51.074;3.788;2024-01-30T09:04:23;12.20;99.90
27226;DHT22;14732;51.074;3.788;2024-01-30T09:06:49;12.10;99.90
27226;DHT22;14732;51.074;3.788;2024-01-30T09:09:14;12.00;99.90
27226;DHT22;14732;51.074;3.788;2024-01-30T09:11:40;11.90;99.90
27226;DHT22;14732;51.074;3.788;2024-01-30T09:14:06;12.10;99.90
27226;DHT22;14732;51.074;3.788;2024-01-30T09:16:32;12.10;99.90
27226;DHT22;14732;51.074;3.788;2024-01-30T09:18:57;12.10;99.90
27226;DHT22;14732;51.074;3.788;2024-01-30T09:21:23;12.20;99.90
27226;DHT22;14732;51.074;3.788;2024-01-30T09:23:49;12.20;99.90
27226;DHT22;14732;51.074;3.788;2024-01-30T09:26:14;12.20;99.90
27226;DHT22;14732;51.074;3.788;2024-01-30T09:28:40;12.20;99.90
27226;DHT22;14732;51.074;3.788;2024-01-30T09:31:11;12.10;99.90
27226;DHT22;14732;51.074;3.788;2024-01-30T09:33:38;12.10;99.90
27226;DHT22;14732;51.074;3.788;2024-01-30T09:36:05;12.00;99.90
27226;DHT22;14732;51.074;3.788;2024-01-30T09:38:30;11.80;99.90
27226;DHT22;14732;51.074;3.788;2024-01-30T09:41:00;11.80;99.90
27226;DHT22;14732;51.074;3.788;2024-01-30T09:43:32;11.80;99.90
27226;DHT22;14732;51.074;3.788;2024-01-30T09:46:00;11.90;99.90
27226;DHT22;14732;51.074;3.788;2024-01-30T09:48:30;12.10;99.90
27226;DHT22;14732;51.074;3.788;2024-01-30T09:50:57;12.20;99.90
27226;DHT22;14732;51.074;3.788;2024-01-30T09:53:23;12.20;99.90
27226;DHT22;14732;51.074;3.788;2024-01-30T09:55:50;12.20;99.90
27226;DHT22;14732;51.074;3.788;2024-01-30T09:58:19;12.00;99.90
27226;DHT22;14732;51.074;3.788;2024-01-30T10:00:45;11.90;99.90
27226;DHT22;14732;51.074;3.788;2024-01-30T10:03:10;11.70;99.90
27226;DHT22;14732;51.074;3.788;2024-01-30T10:05:36;11.70;99.90
27226;DHT22;14732;51.074;3.788;2024-01-30T10:08:08;11.70;99.90
27226;DHT22;14732;51.074;3.788;2024-01-30T10:10:34;11.70;99.90
27226;DHT22;14732;51.074;3.788;2024-01-30T10:13:01;11.70;99.90
27226;DHT22;14732;51.074;3.788;2024-01-30T10:15:28;11.50;99.90
27226;DHT22;14732;51.074;3.788;2024-01-30T10:17:53;11.40;99.90
27226;DHT22;14732;51.074;3.788;2024-01-30T10:20:19;11.50;99.90
27226;DHT22;14732;51.074;3.788;2024-01-30T10:22:48;11.50;99.90
27226;DHT22;14732;51.074;3.788;2024-01-30T10:25:13;11.50;99.90
27226;DHT22;14732;51.074;3.788;2024-01-30T10:27:40;11.50;99.90
27226;DHT22;14732;51.074;3.788;2024-01-30T10:30:06;11.30;99.90
27226;DHT22;14732;51.074;3.788;2024-01-30T10:32:32;11.30;99.90
27226;DHT22;14732;51.074;3.788;2024-01-30T10:34:58;11.50;99.90
27226;DHT22;14732;51.074;3.788;2024-01-30T10:37:25;11.70;99.90
27226;DHT22;14732;51.074;3.788;2024-01-30T10:39:53;11.90;99.90
27226;DHT22;14732;51.074;3.788;2024-01-30T10:42:20;11.90;99.90
27226;DHT22;14732;51.074;3.788;2024-01-30T10:47:34;11.80;99.90
27226;DHT22;14732;51.074;3.788;2024-01-30T10:50:02;11.70;99.90
27226;DHT22;14732;51.074;3.788;2024-01-30T10:52:29;11.70;99.90
27226;DHT22;14732;51.074;3.788;2024-01-30T10:54:55;11.70;99.90
27226;DHT22;14732;51.074;3.788;2024-01-30T10:57:25;11.60;99.90
27226;DHT22;14732;51.074;3.788;2024-01-30T10:59:55;11.80;99.90
27226;DHT22;14732;51.074;3.788;2024-01-30T11:02:22;11.80;99.90
27226;DHT22;14732;51.074;3.788;2024-01-30T11:04:58;11.90;99.90
27226;DHT22;14732;51.074;3.788;2024-01-30T11:07:25;12.30;99.90
27226;DHT22;14732;51.074;3.788;2024-01-30T11:12:24;12.60;99.90
27226;DHT22;14732;51.074;3.788;2024-01-30T11:15:11;12.30;99.90
27226;DHT22;14732;51.074;3.788;2024-01-30T11:20:15;11.90;99.90
27226;DHT22;14732;51.074;3.788;2024-01-30T11:22:44;12.00;99.90
27226;DHT22;14732;51.074;3.788;2024-01-30T11:25:18;12.10;99.90
27226;DHT22;14732;51.074;3.788;2024-01-30T11:27:46;12.00;99.90
27226;DHT22;14732;51.074;3.788;2024-01-30T11:30:31;12.10;99.90
27226;DHT22;14732;51.074;3.788;2024-01-30T11:33:09;12.00;99.90
27226;DHT22;14732;51.074;3.788;2024-01-30T11:35:45;11.90;99.90
27226;DHT22;14732;51.074;3.788;2024-01-30T11:38:14;11.90;99.90
27226;DHT22;14732;51.074;3.788;2024-01-30T11:40:40;11.90;99.90
27226;DHT22;14732;51.074;3.788;2024-01-30T11:43:07;11.80;99.90
27226;DHT22;14732;51.074;3.788;2024-01-30T11:45:33;11.60;99.90
27226;DHT22;14732;51.074;3.788;2024-01-30T11:48:00;11.60;99.90
27226;DHT22;14732;51.074;3.788;2024-01-30T11:50:27;11.50;99.90
27226;DHT22;14732;51.074;3.788;2024-01-30T11:52:54;11.60;99.90
27226;DHT22;14732;51.074;3.788;2024-01-30T11:55:20;11.60;99.90
27226;DHT22;14732;51.074;3.788;2024-01-30T11:57:46;11.60;99.90
27226;DHT22;14732;51.074;3.788;2024-01-30T12:00:15;11.40;99.90
27226;DHT22;14732;51.074;3.788;2024-01-30T12:02:42;11.30;99.90
27226;DHT22;14732;51.074;3.788;2024-01-30T12:05:09;11.40;99.90
27226;DHT22;14732;51.074;3.788;2024-01-30T12:07:35;11.40;99.90
27226;DHT22;14732;51.074;3.788;2024-01-30T12:10:01;11.50;99.90
27226;DHT22;14732;51.074;3.788;2024-01-30T12:12:28;11.50;99.90
27226;DHT22;14732;51.074;3.788;2024-01-30T12:14:55;11.50;99.90
27226;DHT22;14732;51.074;3.788;2024-01-30T12:17:30;11.40;99.90
27226;DHT22;14732;51.074;3.788;2024-01-30T12:20:12;11.20;99.90
27226;DHT22;14732;51.074;3.788;2024-01-30T12:22:42;11.20;99.90
27226;DHT22;14732;51.074;3.788;2024-01-30T12:25:16;11.20;99.90
27226;DHT22;14732;51.074;3.788;2024-01-30T12:27:46;11.10;99.90
27226;DHT22;14732;51.074;3.788;2024-01-30T12:30:13;11.00;99.90
27226;DHT22;14732;51.074;3.788;2024-01-30T12:32:41;11.00;99.90
27226;DHT22;14732;51.074;3.788;2024-01-30T12:35:14;10.90;99.90
27226;DHT22;14732;51.074;3.788;2024-01-30T12:37:41;10.90;99.90
27226;DHT22;14732;51.074;3.788;2024-01-30T12:40:08;10.80;99.90
27226;DHT22;14732;51.074;3.788;2024-01-30T12:42:35;10.60;99.90
27226;DHT22;14732;51.074;3.788;2024-01-30T12:45:03;10.60;99.90
27226;DHT22;14732;51.074;3.788;2024-01-30T12:47:29;10.60;99.90
27226;DHT22;14732;51.074;3.788;2024-01-30T12:49:55;10.50;99.90
27226;DHT22;14732;51.074;3.788;2024-01-30T12:52:22;10.50;99.90
27226;DHT22;14732;51.074;3.788;2024-01-30T12:54:48;10.40;99.90
27226;DHT22;14732;51.074;3.788;2024-01-30T12:57:14;10.50;99.90
27226;DHT22;14732;51.074;3.788;2024-01-30T12:59:40;10.50;99.90
27226;DHT22;14732;51.074;3.788;2024-01-30T13:02:06;10.60;99.90
27226;DHT22;14732;51.074;3.788;2024-01-30T13:04:32;10.70;99.90
27226;DHT22;14732;51.074;3.788;2024-01-30T13:06:58;10.70;99.90
27226;DHT22;14732;51.074;3.788;2024-01-30T13:09:26;10.60;99.90
27226;DHT22;14732;51.074;3.788;2024-01-30T13:11:51;10.50;99.90
27226;DHT22;14732;51.074;3.788;2024-01-30T13:14:18;10.50;99.90
27226;DHT22;14732;51.074;3.788;2024-01-30T13:16:43;10.70;99.90
27226;DHT22;14732;51.074;3.788;2024-01-30T13:19:09;10.70;99.90
27226;DHT22;14732;51.074;3.788;2024-01-30T13:21:35;10.50;99.90
27226;DHT22;14732;51.074;3.788;2024-01-30T13:24:00;10.40;99.90
27226;DHT22;14732;51.074;3.788;2024-01-30T13:26:26;10.40;99.90
27226;DHT22;14732;51.074;3.788;2024-01-30T13:28:52;10.40;99.90
27226;DHT22;14732;51.074;3.788;2024-01-30T13:31:17;10.40;99.90
27226;DHT22;14732;51.074;3.788;2024-01-30T13:33:45;10.50;99.90
27226;DHT22;14732;51.074;3.788;2024-01-30T13:36:11;10.60;99.90
27226;DHT22;14732;51.074;3.788;2024-01-30T13:38:37;10.70;99.90
27226;DHT22;14732;51.074;3.788;2024-01-30T13:41:03;10.70;99.90
27226;DHT22;14732;51.074;3.788;2024-01-30T13:43:29;10.70;99.90
27226;DHT22;14732;51.074;3.788;2024-01-30T13:45:54;10.60;99.90
27226;DHT22;14732;51.074;3.788;2024-01-30T13:48:20;10.60;99.90
27226;DHT22;14732;51.074;3.788;2024-01-30T13:50:47;10.60;99.90
27226;DHT22;14732;51.074;3.788;2024-01-30T13:53:13;10.60;99.90
27226;DHT22;14732;51.074;3.788;2024-01-30T13:55:38;10.70;99.90
27226;DHT22;14732;51.074;3.788;2024-01-30T13:58:05;10.70;99.90
27226;DHT22;14732;51.074;3.788;2024-01-30T14:00:31;10.80;99.90
27226;DHT22;14732;51.074;3.788;2024-01-30T14:02:56;10.70;99.90
27226;DHT22;14732;51.074;3.788;2024-01-30T14:05:24;10.80;99.90
27226;DHT22;14732;51.074;3.788;2024-01-30T14:07:50;10.80;99.90
27226;DHT22;14732;51.074;3.788;2024-01-30T14:10:16;10.60;99.90
27226;DHT22;14732;51.074;3.788;2024-01-30T14:12:43;10.50;99.90
27226;DHT22;14732;51.074;3.788;2024-01-30T14:15:09;10.70;99.90
27226;DHT22;14732;51.074;3.788;2024-01-30T14:17:36;10.70;99.90
27226;DHT22;14732;51.074;3.788;2024-01-30T14:20:06;10.60;99.90
27226;DHT22;14732;51.074;3.788;2024-01-30T14:22:33;10.60;99.90
27226;DHT22;14732;51.074;3.788;2024-01-30T14:25:02;10.60;99.90
27226;DHT22;14732;51.074;3.788;2024-01-30T14:27:31;10.50;99.90
27226;DHT22;14732;51.074;3.788;2024-01-30T14:29:57;10.40;99.90
27226;DHT22;14732;51.074;3.788;2024-01-30T14:32:23;10.30;99.90
27226;DHT22;14732;51.074;3.788;2024-01-30T14:34:52;10.20;99.90
27226;DHT22;14732;51.074;3.788;2024-01-30T14:37:19;10.20;99.90
27226;DHT22;14732;51.074;3.788;2024-01-30T14:39:45;10.20;99.90
27226;DHT22;14732;51.074;3.788;2024-01-30T14:42:11;10.10;99.90
27226;DHT22;14732;51.074;3.788;2024-01-30T14:44:36;10.20;99.90
27226;DHT22;14732;51.074;3.788;2024-01-30T14:47:02;10.10;99.90
27226;DHT22;14732;51.074;3.788;2024-01-30T14:49:28;10.20;99.90
27226;DHT22;14732;51.074;3.788;2024-01-30T14:51:53;10.10;99.90
27226;DHT22;14732;51.074;3.788;2024-01-30T14:54:19;10.10;99.90
27226;DHT22;14732;51.074;3.788;2024-01-30T14:56:45;10.20;99.90
27226;DHT22;14732;51.074;3.788;2024-01-30T14:59:11;10.20;99.90
27226;DHT22;14732;51.074;3.788;2024-01-30T15:01:37;10.30;99.90
27226;DHT22;14732;51.074;3.788;2024-01-30T15:04:02;10.10;99.90
27226;DHT22;14732;51.074;3.788;2024-01-30T15:06:29;10.00;99.90
27226;DHT22;14732;51.074;3.788;2024-01-30T15:08:55;10.00;99.90
27226;DHT22;14732;51.074;3.788;2024-01-30T15:11:20;9.80;99.90
27226;DHT22;14732;51.074;3.788;2024-01-30T15:13:46;9.80;99.90
27226;DHT22;14732;51.074;3.788;2024-01-30T15:16:12;9.70;99.90
27226;DHT22;14732;51.074;3.788;2024-01-30T15:18:38;9.80;99.90
27226;DHT22;14732;51.074;3.788;2024-01-30T15:21:03;9.70;99.90
27226;DHT22;14732;51.074;3.788;2024-01-30T15:23:29;9.80;99.90
27226;DHT22;14732;51.074;3.788;2024-01-30T15:25:55;9.90;99.90
27226;DHT22;14732;51.074;3.788;2024-01-30T15:28:36;10.00;99.90
27226;DHT22;14732;51.074;3.788;2024-01-30T15:31:06;9.90;99.90
27226;DHT22;14732;51.074;3.788;2024-01-30T15:33:32;9.90;99.90
27226;DHT22;14732;51.074;3.788;2024-01-30T15:36:02;9.80;99.90